Kunkletown, PA

9:39 AM EDT on May 25, 2015 (GMT -0400)
Max - Pocono | | Change Station
CLOSE
Current Station
Personal Weather Station
Location: Effort, PA
Elevation: 1089 ft
Nearby Weather Stations

Elev 1089 ft 40.95 °N, 75.42 °W | Updated 3 seconds ago

Overcast
Overcast
73.4 °F
Feels Like 77 °F
N
0.0
Wind Variable Wind from East
Gusts 0.0 mph

Today
High -- | Low -- °F
--% Chance of Precip.
Yesterday
High -- | Low -- °F
Precip. -- in
5:36 AM 8:21 PM
Waxing Crescent, 48% visible
Pressure 30.28 in
Visibility 10.0 miles
Clouds Overcast 10000 ft
Heat Index 77 °F
Dew Point 59 °F
Humidity 60%
Rainfall 0.00 in
Snow Depth Not available.
UV 1.0 out of 12
Pollen 9.00 out of 12
Air Quality Not available.
Flu Activity Sporadic
METAR KMPO 251253Z AUTO 23008KT 10SM OVC100 19/12 A3029 RMK AO2 SLP252 T01940122 $

More Conditions Fewer Conditions

Pressure 30.28 in
Visibility 10.0 miles
Clouds Overcast 10000 ft
Heat Index 77 °F
Dew Point 59 °F
Humidity 60%
Rainfall 0.00 in
Snow Depth Not available.
UV 1.0 out of 12
Pollen 9.00 out of 12
Air Quality Not available.
Flu Activity Sporadic
METAR KMPO 251253Z AUTO 23008KT 10SM OVC100 19/12 A3029 RMK AO2 SLP252 T01940122 $

More Conditions Fewer Conditions

10-Day Weather Forecast

Almanac

Astronomy

May. 25, 2015 Rise Set
Actual Time
Civil Twilight
Nautical Twilight
Astronomical Twilight
Moon
Length of Visible Light
Length of Day
Tomorrow will be .
, % of the Moon is Illuminated

Today's Extremes

State Highs State Lows

Community

WunderPhotos

Upload Photos

1,824,002 photos uploaded!

WunderBlogs® & News

Nearby

Air Quality

  Air Quality AQ Index Pollutant
Not available.

Snow Depth

Station Depth Elevation

Earthquake Activity

City Distance Mag. Time & Date
Minimum magnitude displayed is 2.5.

Coastal Water Temperatures

Place Temperature

Stations

Nearby Weather Stations

Station Location Temp. Windchill Dew Point Humidity Wind Precip. Elev Updated Type